sensor_id;sensor_type;location;lat;lon;timestamp;temperature;humidity
43810;DHT22;29440;48.208;11.162;2022-12-29T00:01:23;4.30;99.90
43810;DHT22;29440;48.208;11.162;2022-12-29T00:03:49;4.40;99.90
43810;DHT22;29440;48.208;11.162;2022-12-29T00:06:14;4.40;99.90
43810;DHT22;29440;48.208;11.162;2022-12-29T00:08:40;4.40;99.90
43810;DHT22;29440;48.208;11.162;2022-12-29T00:11:17;4.50;99.90
43810;DHT22;29440;48.208;11.162;2022-12-29T00:13:44;4.50;99.90
43810;DHT22;29440;48.208;11.162;2022-12-29T00:16:29;4.60;99.90
43810;DHT22;29440;48.208;11.162;2022-12-29T00:18:55;4.60;99.90
43810;DHT22;29440;48.208;11.162;2022-12-29T00:21:22;4.70;99.90
43810;DHT22;29440;48.208;11.162;2022-12-29T00:24:12;4.70;99.90
43810;DHT22;29440;48.208;11.162;2022-12-29T00:29:46;4.70;99.90
43810;DHT22;29440;48.208;11.162;2022-12-29T00:32:32;4.70;99.90
43810;DHT22;29440;48.208;11.162;2022-12-29T00:37:50;4.60;99.90
43810;DHT22;29440;48.208;11.162;2022-12-29T00:40:34;4.70;99.90
43810;DHT22;29440;48.208;11.162;2022-12-29T00:43:18;4.60;99.90
43810;DHT22;29440;48.208;11.162;2022-12-29T00:46:02;4.60;99.90
43810;DHT22;29440;48.208;11.162;2022-12-29T00:48:28;4.60;99.90
43810;DHT22;29440;48.208;11.162;2022-12-29T00:51:12;4.60;99.90
43810;DHT22;29440;48.208;11.162;2022-12-29T00:53:38;4.50;99.90
43810;DHT22;29440;48.208;11.162;2022-12-29T00:56:03;4.50;99.90
43810;DHT22;29440;48.208;11.162;2022-12-29T00:58:30;4.50;99.90
43810;DHT22;29440;48.208;11.162;2022-12-29T01:01:03;4.50;99.90
43810;DHT22;29440;48.208;11.162;2022-12-29T01:03:29;4.50;99.90
43810;DHT22;29440;48.208;11.162;2022-12-29T01:05:55;4.50;99.90
43810;DHT22;29440;48.208;11.162;2022-12-29T01:08:20;4.50;99.90
43810;DHT22;29440;48.208;11.162;2022-12-29T01:10:46;4.50;99.90
43810;DHT22;29440;48.208;11.162;2022-12-29T01:13:11;4.50;99.90
43810;DHT22;29440;48.208;11.162;2022-12-29T01:15:37;4.50;99.90
43810;DHT22;29440;48.208;11.162;2022-12-29T01:18:02;4.50;99.90
43810;DHT22;29440;48.208;11.162;2022-12-29T01:20:28;4.50;99.90
43810;DHT22;29440;48.208;11.162;2022-12-29T01:22:54;4.60;99.90
43810;DHT22;29440;48.208;11.162;2022-12-29T01:25:20;4.60;99.90
43810;DHT22;29440;48.208;11.162;2022-12-29T01:27:46;4.60;99.90
43810;DHT22;29440;48.208;11.162;2022-12-29T01:30:12;4.60;99.90
43810;DHT22;29440;48.208;11.162;2022-12-29T01:32:38;4.60;99.90
43810;DHT22;29440;48.208;11.162;2022-12-29T01:35:04;4.60;99.90
43810;DHT22;29440;48.208;11.162;2022-12-29T01:37:29;4.60;99.90
43810;DHT22;29440;48.208;11.162;2022-12-29T01:39:55;4.60;99.90
43810;DHT22;29440;48.208;11.162;2022-12-29T01:42:24;4.60;99.90
43810;DHT22;29440;48.208;11.162;2022-12-29T01:44:57;4.70;99.90
43810;DHT22;29440;48.208;11.162;2022-12-29T01:49:58;4.60;99.90
43810;DHT22;29440;48.208;11.162;2022-12-29T01:52:26;4.50;99.90
43810;DHT22;29440;48.208;11.162;2022-12-29T01:54:56;4.60;99.90
43810;DHT22;29440;48.208;11.162;2022-12-29T01:57:33;4.60;99.90
43810;DHT22;29440;48.208;11.162;2022-12-29T02:00:11;4.60;99.90
43810;DHT22;29440;48.208;11.162;2022-12-29T02:02:37;4.60;99.90
43810;DHT22;29440;48.208;11.162;2022-12-29T02:05:10;4.70;99.90
43810;DHT22;29440;48.208;11.162;2022-12-29T02:07:37;4.60;99.90
43810;DHT22;29440;48.208;11.162;2022-12-29T02:10:04;4.70;99.90
43810;DHT22;29440;48.208;11.162;2022-12-29T02:12:29;4.70;99.90
43810;DHT22;29440;48.208;11.162;2022-12-29T02:14:58;4.70;99.90
43810;DHT22;29440;48.208;11.162;2022-12-29T02:18:47;4.70;99.90
43810;DHT22;29440;48.208;11.162;2022-12-29T02:35:44;4.90;99.90
43810;DHT22;29440;48.208;11.162;2022-12-29T02:41:07;5.00;99.90
43810;DHT22;29440;48.208;11.162;2022-12-29T02:44:01;5.00;99.90
43810;DHT22;29440;48.208;11.162;2022-12-29T02:46:51;5.10;99.90
43810;DHT22;29440;48.208;11.162;2022-12-29T02:49:46;5.10;99.90
43810;DHT22;29440;48.208;11.162;2022-12-29T02:52:22;5.20;99.90
43810;DHT22;29440;48.208;11.162;2022-12-29T02:54:49;5.20;99.90
43810;DHT22;29440;48.208;11.162;2022-12-29T02:59:50;5.20;99.90
43810;DHT22;29440;48.208;11.162;2022-12-29T03:02:43;5.30;99.90
43810;DHT22;29440;48.208;11.162;2022-12-29T03:08:06;5.40;99.90
43810;DHT22;29440;48.208;11.162;2022-12-29T03:11:08;5.40;99.90
43810;DHT22;29440;48.208;11.162;2022-12-29T03:14:19;5.50;99.90
43810;DHT22;29440;48.208;11.162;2022-12-29T03:17:09;5.50;99.90
43810;DHT22;29440;48.208;11.162;2022-12-29T03:19:45;5.50;99.90
43810;DHT22;29440;48.208;11.162;2022-12-29T03:22:19;5.50;99.90
43810;DHT22;29440;48.208;11.162;2022-12-29T03:25:18;5.60;99.90
43810;DHT22;29440;48.208;11.162;2022-12-29T03:27:50;5.60;99.90
43810;DHT22;29440;48.208;11.162;2022-12-29T03:30:17;5.60;99.90
43810;DHT22;29440;48.208;11.162;2022-12-29T03:32:49;5.60;99.90
43810;DHT22;29440;48.208;11.162;2022-12-29T03:35:18;5.60;99.90
43810;DHT22;29440;48.208;11.162;2022-12-29T03:38:11;5.60;99.90
43810;DHT22;29440;48.208;11.162;2022-12-29T03:40:39;5.60;99.90
43810;DHT22;29440;48.208;11.162;2022-12-29T03:43:07;5.60;99.90
43810;DHT22;29440;48.208;11.162;2022-12-29T03:45:33;5.60;99.90
43810;DHT22;29440;48.208;11.162;2022-12-29T03:47:58;5.60;99.90
43810;DHT22;29440;48.208;11.162;2022-12-29T03:50:24;5.70;99.90
43810;DHT22;29440;48.208;11.162;2022-12-29T03:52:49;5.70;99.90
43810;DHT22;29440;48.208;11.162;2022-12-29T03:55:15;5.70;99.90
43810;DHT22;29440;48.208;11.162;2022-12-29T03:57:41;5.70;99.90
43810;DHT22;29440;48.208;11.162;2022-12-29T04:00:07;5.80;99.90
43810;DHT22;29440;48.208;11.162;2022-12-29T04:02:33;5.80;99.90
43810;DHT22;29440;48.208;11.162;2022-12-29T04:04:58;5.80;99.90
43810;DHT22;29440;48.208;11.162;2022-12-29T04:07:24;5.80;99.90
43810;DHT22;29440;48.208;11.162;2022-12-29T04:09:49;5.80;99.90
43810;DHT22;29440;48.208;11.162;2022-12-29T04:12:15;5.90;99.90
43810;DHT22;29440;48.208;11.162;2022-12-29T04:14:40;5.90;99.90
43810;DHT22;29440;48.208;11.162;2022-12-29T04:17:06;5.90;99.90
43810;DHT22;29440;48.208;11.162;2022-12-29T04:19:32;5.90;99.90
43810;DHT22;29440;48.208;11.162;2022-12-29T04:21:57;6.00;99.90
43810;DHT22;29440;48.208;11.162;2022-12-29T04:24:23;6.00;99.90
43810;DHT22;29440;48.208;11.162;2022-12-29T04:26:48;6.00;99.90
43810;DHT22;29440;48.208;11.162;2022-12-29T04:29:14;6.10;99.90
43810;DHT22;29440;48.208;11.162;2022-12-29T04:31:40;6.10;99.90
43810;DHT22;29440;48.208;11.162;2022-12-29T04:34:05;6.10;99.90
43810;DHT22;29440;48.208;11.162;2022-12-29T04:36:31;6.10;99.90
43810;DHT22;29440;48.208;11.162;2022-12-29T04:38:56;6.10;99.90
43810;DHT22;29440;48.208;11.162;2022-12-29T04:41:22;6.10;99.90
43810;DHT22;29440;48.208;11.162;2022-12-29T04:43:48;6.10;99.90
43810;DHT22;29440;48.208;11.162;2022-12-29T04:46:14;6.20;99.90
43810;DHT22;29440;48.208;11.162;2022-12-29T04:48:39;6.20;99.90
43810;DHT22;29440;48.208;11.162;2022-12-29T04:51:05;6.20;99.90
43810;DHT22;29440;48.208;11.162;2022-12-29T04:53:30;6.20;99.90
43810;DHT22;29440;48.208;11.162;2022-12-29T04:55:56;6.20;99.90
43810;DHT22;29440;48.208;11.162;2022-12-29T04:58:22;6.20;99.90
43810;DHT22;29440;48.208;11.162;2022-12-29T05:00:47;6.20;99.90
43810;DHT22;29440;48.208;11.162;2022-12-29T05:03:13;6.20;99.90
43810;DHT22;29440;48.208;11.162;2022-12-29T05:05:39;6.20;99.90
43810;DHT22;29440;48.208;11.162;2022-12-29T05:08:04;6.40;99.90
43810;DHT22;29440;48.208;11.162;2022-12-29T05:10:30;6.20;99.90
43810;DHT22;29440;48.208;11.162;2022-12-29T05:12:56;6.20;99.90
43810;DHT22;29440;48.208;11.162;2022-12-29T05:15:22;6.20;99.90
43810;DHT22;29440;48.208;11.162;2022-12-29T05:17:48;6.20;99.90
43810;DHT22;29440;48.208;11.162;2022-12-29T05:20:13;6.20;99.90
43810;DHT22;29440;48.208;11.162;2022-12-29T05:22:39;6.20;99.90
43810;DHT22;29440;48.208;11.162;2022-12-29T05:25:05;6.20;99.90
43810;DHT22;29440;48.208;11.162;2022-12-29T05:27:30;6.30;99.90
43810;DHT22;29440;48.208;11.162;2022-12-29T05:29:56;6.30;99.90
43810;DHT22;29440;48.208;11.162;2022-12-29T05:32:22;6.20;99.90
43810;DHT22;29440;48.208;11.162;2022-12-29T05:34:47;6.30;99.90
43810;DHT22;29440;48.208;11.162;2022-12-29T05:37:13;6.30;99.90
43810;DHT22;29440;48.208;11.162;2022-12-29T05:39:39;6.20;99.90
43810;DHT22;29440;48.208;11.162;2022-12-29T05:42:04;6.30;99.90
43810;DHT22;29440;48.208;11.162;2022-12-29T05:44:30;6.30;99.90
43810;DHT22;29440;48.208;11.162;2022-12-29T05:46:55;6.30;99.90
43810;DHT22;29440;48.208;11.162;2022-12-29T05:49:21;6.30;99.90
43810;DHT22;29440;48.208;11.162;2022-12-29T05:51:46;6.30;99.90
43810;DHT22;29440;48.208;11.162;2022-12-29T05:54:12;6.40;99.90
43810;DHT22;29440;48.208;11.162;2022-12-29T05:56:37;6.40;99.90
43810;DHT22;29440;48.208;11.162;2022-12-29T05:59:03;6.40;99.90
43810;DHT22;29440;48.208;11.162;2022-12-29T06:01:28;6.40;99.90
43810;DHT22;29440;48.208;11.162;2022-12-29T06:03:54;6.40;99.90
43810;DHT22;29440;48.208;11.162;2022-12-29T06:06:19;6.50;99.90
43810;DHT22;29440;48.208;11.162;2022-12-29T06:08:45;6.50;99.90
43810;DHT22;29440;48.208;11.162;2022-12-29T06:11:11;6.50;99.90
43810;DHT22;29440;48.208;11.162;2022-12-29T06:13:36;6.50;99.90
43810;DHT22;29440;48.208;11.162;2022-12-29T06:16:02;6.50;99.90
43810;DHT22;29440;48.208;11.162;2022-12-29T06:18:28;6.50;99.90
43810;DHT22;29440;48.208;11.162;2022-12-29T06:20:53;6.50;99.90
43810;DHT22;29440;48.208;11.162;2022-12-29T06:23:19;6.60;99.90
43810;DHT22;29440;48.208;11.162;2022-12-29T06:25:46;6.50;99.90
43810;DHT22;29440;48.208;11.162;2022-12-29T06:28:12;6.50;99.90
43810;DHT22;29440;48.208;11.162;2022-12-29T06:30:37;6.60;99.90
43810;DHT22;29440;48.208;11.162;2022-12-29T06:33:03;6.60;99.90
43810;DHT22;29440;48.208;11.162;2022-12-29T06:35:28;6.60;99.90
43810;DHT22;29440;48.208;11.162;2022-12-29T06:37:54;6.60;99.90
43810;DHT22;29440;48.208;11.162;2022-12-29T06:40:20;6.60;99.90
43810;DHT22;29440;48.208;11.162;2022-12-29T06:42:47;6.70;99.90
43810;DHT22;29440;48.208;11.162;2022-12-29T06:45:12;6.70;99.90
43810;DHT22;29440;48.208;11.162;2022-12-29T06:47:38;6.70;99.90
43810;DHT22;29440;48.208;11.162;2022-12-29T06:50:03;6.70;99.90
43810;DHT22;29440;48.208;11.162;2022-12-29T06:52:29;6.70;99.90
43810;DHT22;29440;48.208;11.162;2022-12-29T06:54:55;6.70;99.90
43810;DHT22;29440;48.208;11.162;2022-12-29T06:57:21;6.60;99.90
43810;DHT22;29440;48.208;11.162;2022-12-29T06:59:46;6.60;99.90
43810;DHT22;29440;48.208;11.162;2022-12-29T07:02:12;6.60;99.90
43810;DHT22;29440;48.208;11.162;2022-12-29T07:04:40;6.60;99.90
43810;DHT22;29440;48.208;11.162;2022-12-29T07:07:05;6.50;99.90
43810;DHT22;29440;48.208;11.162;2022-12-29T07:09:31;6.50;99.90
43810;DHT22;29440;48.208;11.162;2022-12-29T07:11:56;6.50;99.90
43810;DHT22;29440;48.208;11.162;2022-12-29T07:14:22;6.50;99.90
43810;DHT22;29440;48.208;11.162;2022-12-29T07:16:48;6.50;99.90
43810;DHT22;29440;48.208;11.162;2022-12-29T07:19:13;6.60;99.90
43810;DHT22;29440;48.208;11.162;2022-12-29T07:21:39;6.70;99.90
43810;DHT22;29440;48.208;11.162;2022-12-29T07:24:04;6.80;99.90
43810;DHT22;29440;48.208;11.162;2022-12-29T07:26:30;7.00;99.90
43810;DHT22;29440;48.208;11.162;2022-12-29T07:28:56;7.10;99.90
43810;DHT22;29440;48.208;11.162;2022-12-29T07:31:22;7.30;99.90
43810;DHT22;29440;48.208;11.162;2022-12-29T07:33:48;7.40;99.90
43810;DHT22;29440;48.208;11.162;2022-12-29T07:36:14;7.50;99.90
43810;DHT22;29440;48.208;11.162;2022-12-29T07:38:41;7.60;99.90
43810;DHT22;29440;48.208;11.162;2022-12-29T07:41:07;7.70;99.90
43810;DHT22;29440;48.208;11.162;2022-12-29T07:43:33;7.80;99.90
43810;DHT22;29440;48.208;11.162;2022-12-29T07:45:59;8.10;99.90
43810;DHT22;29440;48.208;11.162;2022-12-29T07:48:25;8.50;99.90
43810;DHT22;29440;48.208;11.162;2022-12-29T07:50:50;8.90;99.90
43810;DHT22;29440;48.208;11.162;2022-12-29T07:53:16;9.30;99.90
43810;DHT22;29440;48.208;11.162;2022-12-29T07:55:42;9.80;99.90
43810;DHT22;29440;48.208;11.162;2022-12-29T07:58:08;10.20;99.90
43810;DHT22;29440;48.208;11.162;2022-12-29T08:00:33;10.70;99.90
43810;DHT22;29440;48.208;11.162;2022-12-29T08:02:59;10.90;99.90
43810;DHT22;29440;48.208;11.162;2022-12-29T08:05:25;11.20;99.90
43810;DHT22;29440;48.208;11.162;2022-12-29T08:07:50;11.30;99.90
43810;DHT22;29440;48.208;11.162;2022-12-29T08:10:16;11.50;99.90
43810;DHT22;29440;48.208;11.162;2022-12-29T08:12:43;11.60;99.90
43810;DHT22;29440;48.208;11.162;2022-12-29T08:15:11;11.60;99.90
43810;DHT22;29440;48.208;11.162;2022-12-29T08:17:37;11.70;99.90
43810;DHT22;29440;48.208;11.162;2022-12-29T08:20:03;11.80;99.90
43810;DHT22;29440;48.208;11.162;2022-12-29T08:22:29;11.90;99.90
43810;DHT22;29440;48.208;11.162;2022-12-29T08:24:55;12.10;99.90
43810;DHT22;29440;48.208;11.162;2022-12-29T08:27:21;12.10;99.90
43810;DHT22;29440;48.208;11.162;2022-12-29T08:29:47;12.00;99.90
43810;DHT22;29440;48.208;11.162;2022-12-29T08:32:13;11.90;99.90
43810;DHT22;29440;48.208;11.162;2022-12-29T08:34:38;11.60;99.90
43810;DHT22;29440;48.208;11.162;2022-12-29T08:37:04;11.40;99.90
43810;DHT22;29440;48.208;11.162;2022-12-29T08:39:29;11.20;99.90
43810;DHT22;29440;48.208;11.162;2022-12-29T08:41:55;11.10;99.90
43810;DHT22;29440;48.208;11.162;2022-12-29T08:44:21;11.10;99.90
43810;DHT22;29440;48.208;11.162;2022-12-29T08:46:46;11.20;99.90
43810;DHT22;29440;48.208;11.162;2022-12-29T08:49:12;11.30;99.90
43810;DHT22;29440;48.208;11.162;2022-12-29T08:51:37;11.50;99.90
43810;DHT22;29440;48.208;11.162;2022-12-29T08:54:03;11.70;99.90
43810;DHT22;29440;48.208;11.162;2022-12-29T08:56:29;11.90;99.90
43810;DHT22;29440;48.208;11.162;2022-12-29T08:58:56;12.10;99.90
43810;DHT22;29440;48.208;11.162;2022-12-29T09:01:22;12.30;99.90
43810;DHT22;29440;48.208;11.162;2022-12-29T09:03:48;12.50;99.90
43810;DHT22;29440;48.208;11.162;2022-12-29T09:06:15;12.60;99.90
43810;DHT22;29440;48.208;11.162;2022-12-29T09:08:41;12.70;99.90
43810;DHT22;29440;48.208;11.162;2022-12-29T09:13:37;12.90;99.90
43810;DHT22;29440;48.208;11.162;2022-12-29T09:16:02;12.90;99.90
43810;DHT22;29440;48.208;11.162;2022-12-29T09:18:30;12.80;99.90
43810;DHT22;29440;48.208;11.162;2022-12-29T09:21:02;12.70;99.90
43810;DHT22;29440;48.208;11.162;2022-12-29T09:23:28;12.60;99.90
43810;DHT22;29440;48.208;11.162;2022-12-29T09:25:55;12.40;99.90
43810;DHT22;29440;48.208;11.162;2022-12-29T09:28:21;12.40;99.90
43810;DHT22;29440;48.208;11.162;2022-12-29T09:30:47;12.30;99.90
43810;DHT22;29440;48.208;11.162;2022-12-29T09:33:13;12.30;99.90
43810;DHT22;29440;48.208;11.162;2022-12-29T09:35:43;12.20;99.90
43810;DHT22;29440;48.208;11.162;2022-12-29T09:38:09;12.10;99.90
43810;DHT22;29440;48.208;11.162;2022-12-29T09:40:39;12.00;99.90
43810;DHT22;29440;48.208;11.162;2022-12-29T09:48:35;11.80;99.90
43810;DHT22;29440;48.208;11.162;2022-12-29T09:51:08;11.70;99.90
43810;DHT22;29440;48.208;11.162;2022-12-29T09:53:43;11.70;99.90
43810;DHT22;29440;48.208;11.162;2022-12-29T09:56:30;11.60;99.90
43810;DHT22;29440;48.208;11.162;2022-12-29T09:59:02;11.70;99.90
43810;DHT22;29440;48.208;11.162;2022-12-29T10:01:38;11.50;99.90
43810;DHT22;29440;48.208;11.162;2022-12-29T10:04:06;11.30;99.90
43810;DHT22;29440;48.208;11.162;2022-12-29T10:06:46;11.20;99.90
43810;DHT22;29440;48.208;11.162;2022-12-29T10:09:26;11.00;99.90
43810;DHT22;29440;48.208;11.162;2022-12-29T10:15:13;10.80;99.90
43810;DHT22;29440;48.208;11.162;2022-12-29T10:23:52;10.60;99.90
43810;DHT22;29440;48.208;11.162;2022-12-29T10:26:23;10.60;99.90
43810;DHT22;29440;48.208;11.162;2022-12-29T10:29:22;10.50;99.90
43810;DHT22;29440;48.208;11.162;2022-12-29T10:32:04;10.60;99.90
43810;DHT22;29440;48.208;11.162;2022-12-29T10:34:36;10.50;99.90
43810;DHT22;29440;48.208;11.162;2022-12-29T10:37:12;10.60;99.90
43810;DHT22;29440;48.208;11.162;2022-12-29T10:39:50;10.60;99.90
43810;DHT22;29440;48.208;11.162;2022-12-29T10:42:28;10.70;99.90
43810;DHT22;29440;48.208;11.162;2022-12-29T10:44:58;10.70;99.90
43810;DHT22;29440;48.208;11.162;2022-12-29T10:47:31;10.60;99.90
43810;DHT22;29440;48.208;11.162;2022-12-29T10:49:59;10.60;99.90
43810;DHT22;29440;48.208;11.162;2022-12-29T10:52:26;10.60;99.90
43810;DHT22;29440;48.208;11.162;2022-12-29T10:55:00;10.70;99.90
43810;DHT22;29440;48.208;11.162;2022-12-29T10:57:36;10.60;99.90
43810;DHT22;29440;48.208;11.162;2022-12-29T11:00:23;10.60;99.90
43810;DHT22;29440;48.208;11.162;2022-12-29T11:03:46;10.70;99.90
43810;DHT22;29440;48.208;11.162;2022-12-29T11:06:24;10.70;99.90
43810;DHT22;29440;48.208;11.162;2022-12-29T11:11:26;10.70;99.90
43810;DHT22;29440;48.208;11.162;2022-12-29T11:14:03;10.70;99.90
43810;DHT22;29440;48.208;11.162;2022-12-29T11:16:34;10.80;99.90
43810;DHT22;29440;48.208;11.162;2022-12-29T11:19:00;10.90;99.90
43810;DHT22;29440;48.208;11.162;2022-12-29T11:24:01;10.90;99.90
43810;DHT22;29440;48.208;11.162;2022-12-29T11:26:28;11.00;99.90
43810;DHT22;29440;48.208;11.162;2022-12-29T11:29:16;11.10;99.90
43810;DHT22;29440;48.208;11.162;2022-12-29T11:31:50;11.10;99.90
43810;DHT22;29440;48.208;11.162;2022-12-29T11:34:35;11.30;99.90
43810;DHT22;29440;48.208;11.162;2022-12-29T11:37:05;11.60;99.90
43810;DHT22;29440;48.208;11.162;2022-12-29T11:42:19;11.80;99.90
43810;DHT22;29440;48.208;11.162;2022-12-29T11:44:47;12.00;99.90
43810;DHT22;29440;48.208;11.162;2022-12-29T11:47:28;12.10;99.90
43810;DHT22;29440;48.208;11.162;2022-12-29T11:50:06;12.30;99.90
43810;DHT22;29440;48.208;11.162;2022-12-29T11:52:35;12.40;99.90
43810;DHT22;29440;48.208;11.162;2022-12-29T11:55:04;12.50;99.90
43810;DHT22;29440;48.208;11.162;2022-12-29T11:57:33;12.60;99.90
43810;DHT22;29440;48.208;11.162;2022-12-29T12:00:03;12.70;99.90
43810;DHT22;29440;48.208;11.162;2022-12-29T12:02:36;12.70;99.90
43810;DHT22;29440;48.208;11.162;2022-12-29T12:05:27;12.90;99.90
43810;DHT22;29440;48.208;11.162;2022-12-29T12:08:05;12.90;99.90
43810;DHT22;29440;48.208;11.162;2022-12-29T12:10:58;13.00;99.80
43810;DHT22;29440;48.208;11.162;2022-12-29T12:13:39;13.10;99.90
43810;DHT22;29440;48.208;11.162;2022-12-29T12:16:19;13.20;99.90
43810;DHT22;29440;48.208;11.162;2022-12-29T12:18:56;13.30;99.90
43810;DHT22;29440;48.208;11.162;2022-12-29T12:21:37;13.30;99.90
43810;DHT22;29440;48.208;11.162;2022-12-29T12:24:41;13.40;99.90
43810;DHT22;29440;48.208;11.162;2022-12-29T12:27:12;13.40;99.90
43810;DHT22;29440;48.208;11.162;2022-12-29T12:30:02;13.30;99.90
43810;DHT22;29440;48.208;11.162;2022-12-29T12:32:56;13.30;99.90
43810;DHT22;29440;48.208;11.162;2022-12-29T12:35:42;13.30;99.90
43810;DHT22;29440;48.208;11.162;2022-12-29T12:57:09;13.10;99.90
43810;DHT22;29440;48.208;11.162;2022-12-29T12:59:52;13.10;99.90
43810;DHT22;29440;48.208;11.162;2022-12-29T13:10:47;12.90;99.90
43810;DHT22;29440;48.208;11.162;2022-12-29T13:16:31;12.90;99.90
43810;DHT22;29440;48.208;11.162;2022-12-29T13:22:09;12.80;99.90
43810;DHT22;29440;48.208;11.162;2022-12-29T13:25:02;12.70;99.90
43810;DHT22;29440;48.208;11.162;2022-12-29T13:28:23;12.70;99.90
43810;DHT22;29440;48.208;11.162;2022-12-29T13:30:41;12.70;99.90
43810;DHT22;29440;48.208;11.162;2022-12-29T13:33:24;12.50;99.90
43810;DHT22;29440;48.208;11.162;2022-12-29T13:38:32;12.50;99.90
43810;DHT22;29440;48.208;11.162;2022-12-29T13:41:09;12.40;99.90
43810;DHT22;29440;48.208;11.162;2022-12-29T13:43:39;12.40;99.90
43810;DHT22;29440;48.208;11.162;2022-12-29T13:46:10;12.40;99.90
43810;DHT22;29440;48.208;11.162;2022-12-29T13:48:58;12.30;99.90
43810;DHT22;29440;48.208;11.162;2022-12-29T13:51:25;12.30;99.90
43810;DHT22;29440;48.208;11.162;2022-12-29T13:54:40;12.20;99.90
43810;DHT22;29440;48.208;11.162;2022-12-29T14:00:16;12.20;99.90
43810;DHT22;29440;48.208;11.162;2022-12-29T14:07:48;12.10;99.90
43810;DHT22;29440;48.208;11.162;2022-12-29T14:10:33;12.00;99.90
43810;DHT22;29440;48.208;11.162;2022-12-29T14:13:21;12.00;99.90
43810;DHT22;29440;48.208;11.162;2022-12-29T14:15:55;11.90;99.90
43810;DHT22;29440;48.208;11.162;2022-12-29T14:18:30;11.90;99.90
43810;DHT22;29440;48.208;11.162;2022-12-29T14:23:44;11.80;99.90
43810;DHT22;29440;48.208;11.162;2022-12-29T14:26:13;11.80;99.90
43810;DHT22;29440;48.208;11.162;2022-12-29T14:42:19;11.50;99.90
43810;DHT22;29440;48.208;11.162;2022-12-29T14:47:37;11.50;99.90
43810;DHT22;29440;48.208;11.162;2022-12-29T14:52:59;11.40;99.90
43810;DHT22;29440;48.208;11.162;2022-12-29T14:58:02;11.30;99.90
43810;DHT22;29440;48.208;11.162;2022-12-29T15:00:32;11.30;99.90
43810;DHT22;29440;48.208;11.162;2022-12-29T15:05:53;11.10;99.90
43810;DHT22;29440;48.208;11.162;2022-12-29T15:08:25;11.10;99.90
43810;DHT22;29440;48.208;11.162;2022-12-29T15:11:17;11.10;99.90
43810;DHT22;29440;48.208;11.162;2022-12-29T15:13:42;11.10;99.90
43810;DHT22;29440;48.208;11.162;2022-12-29T15:18:47;11.00;99.90
43810;DHT22;29440;48.208;11.162;2022-12-29T15:21:14;10.90;99.90
43810;DHT22;29440;48.208;11.162;2022-12-29T15:23:43;10.90;99.90
43810;DHT22;29440;48.208;11.162;2022-12-29T15:26:10;10.90;99.90
43810;DHT22;29440;48.208;11.162;2022-12-29T15:28:46;10.90;99.90
43810;DHT22;29440;48.208;11.162;2022-12-29T15:31:23;10.80;99.90
43810;DHT22;29440;48.208;11.162;2022-12-29T15:33:52;10.80;99.90
43810;DHT22;29440;48.208;11.162;2022-12-29T15:36:24;10.80;99.90
43810;DHT22;29440;48.208;11.162;2022-12-29T15:38:50;10.80;99.90
43810;DHT22;29440;48.208;11.162;2022-12-29T15:44:41;10.70;99.90
43810;DHT22;29440;48.208;11.162;2022-12-29T15:47:20;10.70;99.90
43810;DHT22;29440;48.208;11.162;2022-12-29T15:49:52;10.70;99.90
43810;DHT22;29440;48.208;11.162;2022-12-29T15:52:20;10.70;99.90
43810;DHT22;29440;48.208;11.162;2022-12-29T15:54:49;10.80;99.90
43810;DHT22;29440;48.208;11.162;2022-12-29T15:57:27;10.60;99.90
43810;DHT22;29440;48.208;11.162;2022-12-29T15:59:54;10.60;99.90
43810;DHT22;29440;48.208;11.162;2022-12-29T16:02:24;10.70;99.90
43810;DHT22;29440;48.208;11.162;2022-12-29T16:04:50;10.60;99.90
43810;DHT22;29440;48.208;11.162;2022-12-29T16:07:31;10.60;99.90
43810;DHT22;29440;48.208;11.162;2022-12-29T16:10:02;10.60;99.90
43810;DHT22;29440;48.208;11.162;2022-12-29T16:12:35;10.50;99.90
43810;DHT22;29440;48.208;11.162;2022-12-29T16:15:07;10.50;99.90
43810;DHT22;29440;48.208;11.162;2022-12-29T16:17:47;10.50;99.90
43810;DHT22;29440;48.208;11.162;2022-12-29T16:20:23;10.50;99.90
43810;DHT22;29440;48.208;11.162;2022-12-29T16:22:52;10.50;99.90
43810;DHT22;29440;48.208;11.162;2022-12-29T16:25:32;10.40;99.90
43810;DHT22;29440;48.208;11.162;2022-12-29T16:28:01;10.40;99.90
43810;DHT22;29440;48.208;11.162;2022-12-29T16:30:32;10.40;99.90
43810;DHT22;29440;48.208;11.162;2022-12-29T16:33:00;10.40;99.90
43810;DHT22;29440;48.208;11.162;2022-12-29T16:35:28;10.40;99.90
43810;DHT22;29440;48.208;11.162;2022-12-29T16:38:16;10.40;99.90
43810;DHT22;29440;48.208;11.162;2022-12-29T16:40:57;10.40;99.90
43810;DHT22;29440;48.208;11.162;2022-12-29T16:43:25;10.40;99.90
43810;DHT22;29440;48.208;11.162;2022-12-29T16:48:20;10.40;99.90
43810;DHT22;29440;48.208;11.162;2022-12-29T16:50:46;10.40;99.90
43810;DHT22;29440;48.208;11.162;2022-12-29T16:53:20;10.50;99.90
43810;DHT22;29440;48.208;11.162;2022-12-29T16:55:51;10.50;99.90
43810;DHT22;29440;48.208;11.162;2022-12-29T16:58:24;10.50;99.90
43810;DHT22;29440;48.208;11.162;2022-12-29T17:00:54;10.60;99.90
43810;DHT22;29440;48.208;11.162;2022-12-29T17:03:21;10.50;99.90
43810;DHT22;29440;48.208;11.162;2022-12-29T17:05:47;10.60;99.90
43810;DHT22;29440;48.208;11.162;2022-12-29T17:08:21;10.60;99.90
43810;DHT22;29440;48.208;11.162;2022-12-29T17:10:53;10.60;99.90
43810;DHT22;29440;48.208;11.162;2022-12-29T17:13:38;10.60;99.90
43810;DHT22;29440;48.208;11.162;2022-12-29T17:16:05;10.60;99.90
43810;DHT22;29440;48.208;11.162;2022-12-29T17:18:33;10.50;99.90
43810;DHT22;29440;48.208;11.162;2022-12-29T17:20:59;10.50;99.90
43810;DHT22;29440;48.208;11.162;2022-12-29T17:23:24;10.50;99.90
43810;DHT22;29440;48.208;11.162;2022-12-29T17:25:51;10.50;99.90
43810;DHT22;29440;48.208;11.162;2022-12-29T17:28:26;10.50;99.90
43810;DHT22;29440;48.208;11.162;2022-12-29T17:30:55;10.50;99.90
43810;DHT22;29440;48.208;11.162;2022-12-29T17:33:22;10.50;99.90
43810;DHT22;29440;48.208;11.162;2022-12-29T17:35:48;10.50;99.90
43810;DHT22;29440;48.208;11.162;2022-12-29T17:38:28;10.50;99.90
43810;DHT22;29440;48.208;11.162;2022-12-29T17:40:54;10.50;99.90
43810;DHT22;29440;48.208;11.162;2022-12-29T17:43:20;10.60;99.90
43810;DHT22;29440;48.208;11.162;2022-12-29T17:45:49;10.50;99.90
43810;DHT22;29440;48.208;11.162;2022-12-29T17:48:17;10.60;99.90
43810;DHT22;29440;48.208;11.162;2022-12-29T17:50:47;10.60;99.90
43810;DHT22;29440;48.208;11.162;2022-12-29T17:53:16;10.60;99.90
43810;DHT22;29440;48.208;11.162;2022-12-29T17:55:44;10.60;99.90
43810;DHT22;29440;48.208;11.162;2022-12-29T17:58:22;10.60;99.90
43810;DHT22;29440;48.208;11.162;2022-12-29T18:00:53;10.60;99.90
43810;DHT22;29440;48.208;11.162;2022-12-29T18:03:24;10.60;99.90